sensor_id;sensor_type;location;lat;lon;timestamp;P1;durP1;ratioP1;P2;durP2;ratioP2
23416;SDS011;11881;42.432;25.632;2022-11-12T00:00:13;10.53;;;7.17;;
23416;SDS011;11881;42.432;25.632;2022-11-12T00:02:39;10.37;;;7.37;;
23416;SDS011;11881;42.432;25.632;2022-11-12T00:05:04;10.20;;;7.43;;
23416;SDS011;11881;42.432;25.632;2022-11-12T00:07:30;11.50;;;7.37;;
23416;SDS011;11881;42.432;25.632;2022-11-12T00:09:55;11.17;;;7.30;;
23416;SDS011;11881;42.432;25.632;2022-11-12T00:12:21;11.87;;;8.00;;
23416;SDS011;11881;42.432;25.632;2022-11-12T00:14:46;13.30;;;7.63;;
23416;SDS011;11881;42.432;25.632;2022-11-12T00:17:11;13.90;;;8.07;;
23416;SDS011;11881;42.432;25.632;2022-11-12T00:19:37;15.60;;;8.70;;
23416;SDS011;11881;42.432;25.632;2022-11-12T00:22:02;14.13;;;8.57;;
23416;SDS011;11881;42.432;25.632;2022-11-12T00:24:28;11.20;;;8.63;;
23416;SDS011;11881;42.432;25.632;2022-11-12T00:26:53;13.97;;;9.07;;
23416;SDS011;11881;42.432;25.632;2022-11-12T00:29:19;13.87;;;9.60;;
23416;SDS011;11881;42.432;25.632;2022-11-12T00:31:45;13.37;;;9.87;;
23416;SDS011;11881;42.432;25.632;2022-11-12T00:34:10;13.43;;;9.40;;
23416;SDS011;11881;42.432;25.632;2022-11-12T00:36:35;13.53;;;9.90;;
23416;SDS011;11881;42.432;25.632;2022-11-12T00:39:01;15.53;;;9.43;;
23416;SDS011;11881;42.432;25.632;2022-11-12T00:41:28;13.23;;;9.63;;
23416;SDS011;11881;42.432;25.632;2022-11-12T00:43:53;14.07;;;9.57;;
23416;SDS011;11881;42.432;25.632;2022-11-12T00:46:18;15.13;;;10.33;;
23416;SDS011;11881;42.432;25.632;2022-11-12T00:48:44;15.50;;;9.83;;
23416;SDS011;11881;42.432;25.632;2022-11-12T00:51:09;14.03;;;9.27;;
23416;SDS011;11881;42.432;25.632;2022-11-12T00:53:34;14.37;;;9.93;;
23416;SDS011;11881;42.432;25.632;2022-11-12T00:56:02;14.30;;;9.80;;
23416;SDS011;11881;42.432;25.632;2022-11-12T00:58:30;12.17;;;9.53;;
23416;SDS011;11881;42.432;25.632;2022-11-12T01:00:56;13.77;;;9.57;;
23416;SDS011;11881;42.432;25.632;2022-11-12T01:03:22;13.03;;;9.40;;
23416;SDS011;11881;42.432;25.632;2022-11-12T01:05:48;13.80;;;9.33;;
23416;SDS011;11881;42.432;25.632;2022-11-12T01:08:13;12.83;;;9.03;;
23416;SDS011;11881;42.432;25.632;2022-11-12T01:10:38;12.90;;;8.60;;
23416;SDS011;11881;42.432;25.632;2022-11-12T01:13:04;14.67;;;9.33;;
23416;SDS011;11881;42.432;25.632;2022-11-12T01:15:29;12.77;;;8.80;;
23416;SDS011;11881;42.432;25.632;2022-11-12T01:17:55;12.50;;;8.47;;
23416;SDS011;11881;42.432;25.632;2022-11-12T01:20:20;11.70;;;8.67;;
23416;SDS011;11881;42.432;25.632;2022-11-12T01:22:45;13.83;;;8.57;;
23416;SDS011;11881;42.432;25.632;2022-11-12T01:25:11;12.30;;;8.77;;
23416;SDS011;11881;42.432;25.632;2022-11-12T01:27:36;12.03;;;8.30;;
23416;SDS011;11881;42.432;25.632;2022-11-12T01:30:02;10.07;;;7.50;;
23416;SDS011;11881;42.432;25.632;2022-11-12T01:32:32;9.60;;;7.23;;
23416;SDS011;11881;42.432;25.632;2022-11-12T01:34:59;11.50;;;6.40;;
23416;SDS011;11881;42.432;25.632;2022-11-12T01:37:24;10.43;;;6.67;;
23416;SDS011;11881;42.432;25.632;2022-11-12T01:39:49;7.80;;;5.33;;
23416;SDS011;11881;42.432;25.632;2022-11-12T01:42:15;8.33;;;5.00;;
23416;SDS011;11881;42.432;25.632;2022-11-12T01:44:41;6.33;;;5.50;;
23416;SDS011;11881;42.432;25.632;2022-11-12T01:49:52;6.43;;;5.00;;
23416;SDS011;11881;42.432;25.632;2022-11-12T01:54:51;8.30;;;4.87;;
23416;SDS011;11881;42.432;25.632;2022-11-12T01:57:32;6.57;;;5.00;;
23416;SDS011;11881;42.432;25.632;2022-11-12T02:00:04;6.03;;;4.77;;
23416;SDS011;11881;42.432;25.632;2022-11-12T02:02:33;5.73;;;3.57;;
23416;SDS011;11881;42.432;25.632;2022-11-12T02:05:00;4.37;;;3.70;;
23416;SDS011;11881;42.432;25.632;2022-11-12T02:07:27;5.50;;;3.50;;
23416;SDS011;11881;42.432;25.632;2022-11-12T02:09:53;5.30;;;3.63;;
23416;SDS011;11881;42.432;25.632;2022-11-12T02:12:19;4.43;;;3.50;;
23416;SDS011;11881;42.432;25.632;2022-11-12T02:15:04;4.23;;;3.20;;
23416;SDS011;11881;42.432;25.632;2022-11-12T02:17:30;4.70;;;3.13;;
23416;SDS011;11881;42.432;25.632;2022-11-12T02:19:58;4.27;;;3.23;;
23416;SDS011;11881;42.432;25.632;2022-11-12T02:22:24;5.30;;;2.63;;
23416;SDS011;11881;42.432;25.632;2022-11-12T02:24:50;3.07;;;2.57;;
23416;SDS011;11881;42.432;25.632;2022-11-12T02:27:15;5.00;;;2.73;;
23416;SDS011;11881;42.432;25.632;2022-11-12T02:29:40;3.53;;;2.77;;
23416;SDS011;11881;42.432;25.632;2022-11-12T02:32:11;4.50;;;2.70;;
23416;SDS011;11881;42.432;25.632;2022-11-12T02:34:39;4.00;;;2.53;;
23416;SDS011;11881;42.432;25.632;2022-11-12T02:37:05;2.33;;;2.13;;
23416;SDS011;11881;42.432;25.632;2022-11-12T02:39:31;3.93;;;2.33;;
23416;SDS011;11881;42.432;25.632;2022-11-12T02:41:57;2.30;;;1.93;;
23416;SDS011;11881;42.432;25.632;2022-11-12T02:44:22;2.93;;;2.10;;
23416;SDS011;11881;42.432;25.632;2022-11-12T02:46:48;3.27;;;2.30;;
23416;SDS011;11881;42.432;25.632;2022-11-12T02:49:13;2.63;;;1.97;;
23416;SDS011;11881;42.432;25.632;2022-11-12T02:51:38;2.80;;;2.00;;
23416;SDS011;11881;42.432;25.632;2022-11-12T02:54:04;3.13;;;2.10;;
23416;SDS011;11881;42.432;25.632;2022-11-12T02:56:31;4.17;;;2.10;;
23416;SDS011;11881;42.432;25.632;2022-11-12T02:58:56;2.07;;;1.80;;
23416;SDS011;11881;42.432;25.632;2022-11-12T03:01:22;7.27;;;2.10;;
23416;SDS011;11881;42.432;25.632;2022-11-12T03:03:47;1.73;;;1.57;;
23416;SDS011;11881;42.432;25.632;2022-11-12T03:06:13;2.50;;;1.73;;
23416;SDS011;11881;42.432;25.632;2022-11-12T03:08:38;2.60;;;2.23;;
23416;SDS011;11881;42.432;25.632;2022-11-12T03:11:07;3.20;;;2.33;;
23416;SDS011;11881;42.432;25.632;2022-11-12T03:13:37;3.43;;;2.40;;
23416;SDS011;11881;42.432;25.632;2022-11-12T03:16:03;7.03;;;2.50;;
23416;SDS011;11881;42.432;25.632;2022-11-12T03:18:29;4.17;;;2.47;;
23416;SDS011;11881;42.432;25.632;2022-11-12T03:20:55;2.40;;;2.20;;
23416;SDS011;11881;42.432;25.632;2022-11-12T03:23:21;3.37;;;2.60;;
23416;SDS011;11881;42.432;25.632;2022-11-12T03:25:47;7.97;;;3.20;;
23416;SDS011;11881;42.432;25.632;2022-11-12T03:28:13;4.17;;;2.83;;
23416;SDS011;11881;42.432;25.632;2022-11-12T03:30:40;6.03;;;3.13;;
23416;SDS011;11881;42.432;25.632;2022-11-12T03:33:07;3.30;;;2.50;;
23416;SDS011;11881;42.432;25.632;2022-11-12T03:35:34;4.97;;;3.10;;
23416;SDS011;11881;42.432;25.632;2022-11-12T03:38:00;4.37;;;3.07;;
23416;SDS011;11881;42.432;25.632;2022-11-12T03:40:26;4.43;;;3.53;;
23416;SDS011;11881;42.432;25.632;2022-11-12T03:42:53;3.73;;;3.17;;
23416;SDS011;11881;42.432;25.632;2022-11-12T03:45:19;5.47;;;3.43;;
23416;SDS011;11881;42.432;25.632;2022-11-12T03:47:46;4.87;;;3.37;;
23416;SDS011;11881;42.432;25.632;2022-11-12T03:50:13;6.60;;;3.00;;
23416;SDS011;11881;42.432;25.632;2022-11-12T03:52:45;4.87;;;3.50;;
23416;SDS011;11881;42.432;25.632;2022-11-12T03:55:12;8.00;;;4.10;;
23416;SDS011;11881;42.432;25.632;2022-11-12T03:57:38;5.07;;;3.90;;
23416;SDS011;11881;42.432;25.632;2022-11-12T04:00:04;5.67;;;3.83;;
23416;SDS011;11881;42.432;25.632;2022-11-12T04:02:30;4.63;;;3.87;;
23416;SDS011;11881;42.432;25.632;2022-11-12T04:04:56;5.20;;;3.97;;
23416;SDS011;11881;42.432;25.632;2022-11-12T04:07:39;5.23;;;3.80;;
23416;SDS011;11881;42.432;25.632;2022-11-12T04:10:23;5.57;;;3.67;;
23416;SDS011;11881;42.432;25.632;2022-11-12T04:12:49;6.43;;;3.53;;
23416;SDS011;11881;42.432;25.632;2022-11-12T04:15:32;4.13;;;3.20;;
23416;SDS011;11881;42.432;25.632;2022-11-12T04:17:58;4.53;;;3.83;;
23416;SDS011;11881;42.432;25.632;2022-11-12T04:20:42;4.23;;;3.63;;
23416;SDS011;11881;42.432;25.632;2022-11-12T04:23:30;3.80;;;3.40;;
23416;SDS011;11881;42.432;25.632;2022-11-12T04:25:55;3.83;;;3.40;;
23416;SDS011;11881;42.432;25.632;2022-11-12T04:28:39;6.70;;;3.60;;
23416;SDS011;11881;42.432;25.632;2022-11-12T04:31:24;7.00;;;4.20;;
23416;SDS011;11881;42.432;25.632;2022-11-12T04:33:50;5.60;;;4.13;;
23416;SDS011;11881;42.432;25.632;2022-11-12T04:36:15;4.87;;;3.93;;
23416;SDS011;11881;42.432;25.632;2022-11-12T04:38:40;7.27;;;4.67;;
23416;SDS011;11881;42.432;25.632;2022-11-12T04:41:06;4.93;;;4.10;;
23416;SDS011;11881;42.432;25.632;2022-11-12T04:43:51;6.63;;;4.10;;
23416;SDS011;11881;42.432;25.632;2022-11-12T04:46:35;4.67;;;3.77;;
23416;SDS011;11881;42.432;25.632;2022-11-12T04:49:00;5.27;;;3.47;;
23416;SDS011;11881;42.432;25.632;2022-11-12T04:51:25;5.90;;;4.00;;
23416;SDS011;11881;42.432;25.632;2022-11-12T04:54:09;7.13;;;4.00;;
23416;SDS011;11881;42.432;25.632;2022-11-12T04:56:35;5.13;;;4.27;;
23416;SDS011;11881;42.432;25.632;2022-11-12T04:59:00;4.47;;;3.67;;
23416;SDS011;11881;42.432;25.632;2022-11-12T05:01:26;7.97;;;4.70;;
23416;SDS011;11881;42.432;25.632;2022-11-12T05:03:51;7.03;;;4.37;;
23416;SDS011;11881;42.432;25.632;2022-11-12T05:06:16;7.33;;;4.33;;
23416;SDS011;11881;42.432;25.632;2022-11-12T05:09:00;9.03;;;4.40;;
23416;SDS011;11881;42.432;25.632;2022-11-12T05:11:26;6.20;;;4.43;;
23416;SDS011;11881;42.432;25.632;2022-11-12T05:13:51;8.60;;;5.20;;
23416;SDS011;11881;42.432;25.632;2022-11-12T05:16:17;6.17;;;4.73;;
23416;SDS011;11881;42.432;25.632;2022-11-12T05:18:42;6.97;;;4.77;;
23416;SDS011;11881;42.432;25.632;2022-11-12T05:21:07;7.50;;;4.60;;
23416;SDS011;11881;42.432;25.632;2022-11-12T05:23:51;5.70;;;4.23;;
23416;SDS011;11881;42.432;25.632;2022-11-12T05:26:16;7.23;;;4.50;;
23416;SDS011;11881;42.432;25.632;2022-11-12T05:28:42;10.53;;;4.73;;
23416;SDS011;11881;42.432;25.632;2022-11-12T05:31:07;6.63;;;4.37;;
23416;SDS011;11881;42.432;25.632;2022-11-12T05:33:33;9.47;;;4.70;;
23416;SDS011;11881;42.432;25.632;2022-11-12T05:35:58;5.83;;;4.43;;
23416;SDS011;11881;42.432;25.632;2022-11-12T05:38:24;8.13;;;5.13;;
23416;SDS011;11881;42.432;25.632;2022-11-12T05:40:50;7.53;;;4.83;;
23416;SDS011;11881;42.432;25.632;2022-11-12T05:43:15;7.63;;;5.07;;
23416;SDS011;11881;42.432;25.632;2022-11-12T05:45:41;7.13;;;4.23;;
23416;SDS011;11881;42.432;25.632;2022-11-12T05:48:07;7.17;;;4.57;;
23416;SDS011;11881;42.432;25.632;2022-11-12T05:50:32;7.30;;;4.70;;
23416;SDS011;11881;42.432;25.632;2022-11-12T05:52:58;6.07;;;4.63;;
23416;SDS011;11881;42.432;25.632;2022-11-12T05:55:24;7.70;;;4.27;;
23416;SDS011;11881;42.432;25.632;2022-11-12T05:57:49;6.43;;;4.40;;
23416;SDS011;11881;42.432;25.632;2022-11-12T06:00:15;6.27;;;4.40;;
23416;SDS011;11881;42.432;25.632;2022-11-12T06:02:41;7.40;;;4.17;;
23416;SDS011;11881;42.432;25.632;2022-11-12T06:05:06;8.13;;;4.23;;
23416;SDS011;11881;42.432;25.632;2022-11-12T06:07:32;6.23;;;4.10;;
23416;SDS011;11881;42.432;25.632;2022-11-12T06:09:58;6.73;;;4.30;;
23416;SDS011;11881;42.432;25.632;2022-11-12T06:12:23;6.80;;;4.67;;
23416;SDS011;11881;42.432;25.632;2022-11-12T06:14:48;8.77;;;4.63;;
23416;SDS011;11881;42.432;25.632;2022-11-12T06:17:14;13.00;;;5.20;;
23416;SDS011;11881;42.432;25.632;2022-11-12T06:19:39;8.10;;;5.20;;
23416;SDS011;11881;42.432;25.632;2022-11-12T06:22:05;6.30;;;4.67;;
23416;SDS011;11881;42.432;25.632;2022-11-12T06:24:30;12.27;;;5.10;;
23416;SDS011;11881;42.432;25.632;2022-11-12T06:26:56;20.90;;;6.70;;
23416;SDS011;11881;42.432;25.632;2022-11-12T06:29:21;10.13;;;5.37;;
23416;SDS011;11881;42.432;25.632;2022-11-12T06:31:46;8.50;;;5.77;;
23416;SDS011;11881;42.432;25.632;2022-11-12T06:34:12;11.17;;;6.07;;
23416;SDS011;11881;42.432;25.632;2022-11-12T06:36:37;8.70;;;5.90;;
23416;SDS011;11881;42.432;25.632;2022-11-12T06:39:03;10.53;;;6.90;;
23416;SDS011;11881;42.432;25.632;2022-11-12T06:41:28;8.23;;;5.97;;
23416;SDS011;11881;42.432;25.632;2022-11-12T06:43:53;10.97;;;6.80;;
23416;SDS011;11881;42.432;25.632;2022-11-12T06:46:19;11.93;;;6.47;;
23416;SDS011;11881;42.432;25.632;2022-11-12T06:48:44;9.70;;;6.63;;
23416;SDS011;11881;42.432;25.632;2022-11-12T06:51:17;8.07;;;6.30;;
23416;SDS011;11881;42.432;25.632;2022-11-12T06:53:44;11.37;;;6.80;;
23416;SDS011;11881;42.432;25.632;2022-11-12T06:56:10;10.93;;;6.93;;
23416;SDS011;11881;42.432;25.632;2022-11-12T06:58:35;9.07;;;6.57;;
23416;SDS011;11881;42.432;25.632;2022-11-12T07:01:19;11.10;;;7.60;;
23416;SDS011;11881;42.432;25.632;2022-11-12T07:03:44;9.53;;;6.93;;
23416;SDS011;11881;42.432;25.632;2022-11-12T07:06:11;11.27;;;7.23;;
23416;SDS011;11881;42.432;25.632;2022-11-12T07:08:38;11.97;;;8.00;;
23416;SDS011;11881;42.432;25.632;2022-11-12T07:11:05;12.80;;;8.13;;
23416;SDS011;11881;42.432;25.632;2022-11-12T07:13:31;12.80;;;7.83;;
23416;SDS011;11881;42.432;25.632;2022-11-12T07:15:58;10.83;;;7.13;;
23416;SDS011;11881;42.432;25.632;2022-11-12T07:18:25;12.40;;;6.90;;
23416;SDS011;11881;42.432;25.632;2022-11-12T07:20:50;13.83;;;6.90;;
23416;SDS011;11881;42.432;25.632;2022-11-12T07:23:20;11.83;;;7.07;;
23416;SDS011;11881;42.432;25.632;2022-11-12T07:25:46;9.10;;;7.00;;
23416;SDS011;11881;42.432;25.632;2022-11-12T07:28:11;14.10;;;6.37;;
23416;SDS011;11881;42.432;25.632;2022-11-12T07:30:37;8.97;;;6.57;;
23416;SDS011;11881;42.432;25.632;2022-11-12T07:33:02;10.63;;;6.80;;
23416;SDS011;11881;42.432;25.632;2022-11-12T07:35:28;9.97;;;6.60;;
23416;SDS011;11881;42.432;25.632;2022-11-12T07:37:53;9.00;;;6.23;;
23416;SDS011;11881;42.432;25.632;2022-11-12T07:40:18;9.73;;;6.60;;
23416;SDS011;11881;42.432;25.632;2022-11-12T07:42:44;9.13;;;6.10;;
23416;SDS011;11881;42.432;25.632;2022-11-12T07:45:09;9.03;;;6.97;;
23416;SDS011;11881;42.432;25.632;2022-11-12T07:47:35;10.67;;;7.23;;
23416;SDS011;11881;42.432;25.632;2022-11-12T07:50:00;11.27;;;7.47;;
23416;SDS011;11881;42.432;25.632;2022-11-12T07:52:25;11.00;;;7.03;;
23416;SDS011;11881;42.432;25.632;2022-11-12T07:54:51;8.23;;;6.10;;
23416;SDS011;11881;42.432;25.632;2022-11-12T07:57:16;11.10;;;7.20;;
23416;SDS011;11881;42.432;25.632;2022-11-12T07:59:41;10.57;;;7.20;;
23416;SDS011;11881;42.432;25.632;2022-11-12T08:02:07;10.60;;;7.00;;
23416;SDS011;11881;42.432;25.632;2022-11-12T08:04:33;11.20;;;7.37;;
23416;SDS011;11881;42.432;25.632;2022-11-12T08:06:59;9.57;;;6.63;;
23416;SDS011;11881;42.432;25.632;2022-11-12T08:09:24;8.57;;;6.20;;
23416;SDS011;11881;42.432;25.632;2022-11-12T08:11:50;8.83;;;6.70;;
23416;SDS011;11881;42.432;25.632;2022-11-12T08:14:15;9.87;;;6.60;;
23416;SDS011;11881;42.432;25.632;2022-11-12T08:16:41;8.70;;;6.77;;
23416;SDS011;11881;42.432;25.632;2022-11-12T08:19:06;8.90;;;6.60;;
23416;SDS011;11881;42.432;25.632;2022-11-12T08:21:31;11.00;;;6.87;;
23416;SDS011;11881;42.432;25.632;2022-11-12T08:23:57;10.50;;;7.23;;
23416;SDS011;11881;42.432;25.632;2022-11-12T08:26:22;9.50;;;7.17;;
23416;SDS011;11881;42.432;25.632;2022-11-12T08:28:48;12.53;;;7.63;;
23416;SDS011;11881;42.432;25.632;2022-11-12T08:31:14;8.77;;;6.47;;
23416;SDS011;11881;42.432;25.632;2022-11-12T08:33:41;7.13;;;5.80;;
23416;SDS011;11881;42.432;25.632;2022-11-12T08:36:08;10.87;;;6.70;;
23416;SDS011;11881;42.432;25.632;2022-11-12T08:38:35;8.20;;;5.93;;
23416;SDS011;11881;42.432;25.632;2022-11-12T08:41:01;8.27;;;5.87;;
23416;SDS011;11881;42.432;25.632;2022-11-12T08:43:28;7.97;;;5.90;;
23416;SDS011;11881;42.432;25.632;2022-11-12T08:45:56;6.30;;;5.03;;
23416;SDS011;11881;42.432;25.632;2022-11-12T08:48:23;9.93;;;5.50;;
23416;SDS011;11881;42.432;25.632;2022-11-12T08:50:49;7.77;;;5.00;;
23416;SDS011;11881;42.432;25.632;2022-11-12T08:53:14;8.13;;;5.60;;
23416;SDS011;11881;42.432;25.632;2022-11-12T08:55:40;7.63;;;6.13;;
23416;SDS011;11881;42.432;25.632;2022-11-12T08:58:05;10.57;;;6.77;;
23416;SDS011;11881;42.432;25.632;2022-11-12T09:00:35;8.73;;;6.43;;
23416;SDS011;11881;42.432;25.632;2022-11-12T09:03:02;10.20;;;7.47;;
23416;SDS011;11881;42.432;25.632;2022-11-12T09:05:29;11.93;;;6.83;;
23416;SDS011;11881;42.432;25.632;2022-11-12T09:10:24;13.97;;;9.37;;
23416;SDS011;11881;42.432;25.632;2022-11-12T09:12:50;13.07;;;7.53;;
23416;SDS011;11881;42.432;25.632;2022-11-12T09:15:16;6.53;;;5.43;;
23416;SDS011;11881;42.432;25.632;2022-11-12T09:17:42;11.27;;;6.73;;
23416;SDS011;11881;42.432;25.632;2022-11-12T09:20:08;12.67;;;7.53;;
23416;SDS011;11881;42.432;25.632;2022-11-12T09:22:33;23.20;;;13.20;;
23416;SDS011;11881;42.432;25.632;2022-11-12T09:24:59;20.70;;;12.53;;
23416;SDS011;11881;42.432;25.632;2022-11-12T09:27:27;13.33;;;8.00;;
23416;SDS011;11881;42.432;25.632;2022-11-12T09:29:53;11.53;;;6.40;;
23416;SDS011;11881;42.432;25.632;2022-11-12T09:32:18;12.10;;;7.63;;
23416;SDS011;11881;42.432;25.632;2022-11-12T09:34:44;9.90;;;7.40;;
23416;SDS011;11881;42.432;25.632;2022-11-12T09:37:09;10.07;;;7.00;;
23416;SDS011;11881;42.432;25.632;2022-11-12T09:39:35;10.90;;;8.77;;
23416;SDS011;11881;42.432;25.632;2022-11-12T09:42:05;8.67;;;7.00;;
23416;SDS011;11881;42.432;25.632;2022-11-12T09:44:32;7.83;;;6.07;;
23416;SDS011;11881;42.432;25.632;2022-11-12T09:49:32;13.73;;;8.50;;
23416;SDS011;11881;42.432;25.632;2022-11-12T09:52:23;12.67;;;9.47;;
23416;SDS011;11881;42.432;25.632;2022-11-12T09:57:43;8.43;;;7.03;;
23416;SDS011;11881;42.432;25.632;2022-11-12T10:00:18;8.70;;;6.30;;
23416;SDS011;11881;42.432;25.632;2022-11-12T10:05:35;9.83;;;7.07;;
23416;SDS011;11881;42.432;25.632;2022-11-12T10:08:22;9.50;;;7.60;;
23416;SDS011;11881;42.432;25.632;2022-11-12T10:21:49;9.67;;;7.80;;
23416;SDS011;11881;42.432;25.632;2022-11-12T10:24:32;8.40;;;7.03;;
23416;SDS011;11881;42.432;25.632;2022-11-12T10:27:00;11.17;;;8.30;;
23416;SDS011;11881;42.432;25.632;2022-11-12T10:29:38;10.83;;;8.70;;
23416;SDS011;11881;42.432;25.632;2022-11-12T10:32:12;12.80;;;9.37;;
23416;SDS011;11881;42.432;25.632;2022-11-12T10:34:39;12.17;;;9.00;;
23416;SDS011;11881;42.432;25.632;2022-11-12T10:37:06;11.83;;;9.40;;
23416;SDS011;11881;42.432;25.632;2022-11-12T10:39:38;13.10;;;8.70;;
23416;SDS011;11881;42.432;25.632;2022-11-12T10:42:06;11.20;;;8.93;;
23416;SDS011;11881;42.432;25.632;2022-11-12T10:44:34;13.07;;;9.37;;
23416;SDS011;11881;42.432;25.632;2022-11-12T10:53:00;15.43;;;11.83;;
23416;SDS011;11881;42.432;25.632;2022-11-12T10:55:31;14.63;;;10.97;;
23416;SDS011;11881;42.432;25.632;2022-11-12T11:03:17;15.40;;;11.33;;
23416;SDS011;11881;42.432;25.632;2022-11-12T11:05:56;14.77;;;11.43;;
23416;SDS011;11881;42.432;25.632;2022-11-12T11:08:45;18.97;;;12.27;;
23416;SDS011;11881;42.432;25.632;2022-11-12T11:13:44;17.10;;;11.97;;
23416;SDS011;11881;42.432;25.632;2022-11-12T11:16:12;16.93;;;12.90;;
23416;SDS011;11881;42.432;25.632;2022-11-12T11:18:40;20.53;;;13.40;;
23416;SDS011;11881;42.432;25.632;2022-11-12T11:21:12;20.90;;;13.67;;
23416;SDS011;11881;42.432;25.632;2022-11-12T11:32:31;27.13;;;17.87;;
23416;SDS011;11881;42.432;25.632;2022-11-12T11:37:56;21.07;;;14.90;;
23416;SDS011;11881;42.432;25.632;2022-11-12T11:40:27;24.27;;;15.10;;
23416;SDS011;11881;42.432;25.632;2022-11-12T11:50:58;18.07;;;11.80;;
23416;SDS011;11881;42.432;25.632;2022-11-12T11:56:24;16.10;;;10.83;;
23416;SDS011;11881;42.432;25.632;2022-11-12T12:01:34;12.97;;;10.73;;
23416;SDS011;11881;42.432;25.632;2022-11-12T12:06:43;18.70;;;11.70;;
23416;SDS011;11881;42.432;25.632;2022-11-12T12:09:32;17.17;;;12.20;;
23416;SDS011;11881;42.432;25.632;2022-11-12T12:15:08;18.20;;;12.20;;
23416;SDS011;11881;42.432;25.632;2022-11-12T12:20:52;17.13;;;10.70;;
23416;SDS011;11881;42.432;25.632;2022-11-12T12:25:55;17.03;;;10.87;;
23416;SDS011;11881;42.432;25.632;2022-11-12T12:28:33;12.20;;;9.00;;
23416;SDS011;11881;42.432;25.632;2022-11-12T12:31:01;13.87;;;8.97;;
23416;SDS011;11881;42.432;25.632;2022-11-12T12:36:02;11.80;;;8.87;;
23416;SDS011;11881;42.432;25.632;2022-11-12T12:41:11;13.30;;;9.67;;
23416;SDS011;11881;42.432;25.632;2022-11-12T12:43:44;10.67;;;8.07;;
23416;SDS011;11881;42.432;25.632;2022-11-12T12:46:15;9.63;;;7.47;;
23416;SDS011;11881;42.432;25.632;2022-11-12T12:48:44;10.83;;;8.30;;
23416;SDS011;11881;42.432;25.632;2022-11-12T12:51:11;10.07;;;7.33;;
23416;SDS011;11881;42.432;25.632;2022-11-12T12:53:37;8.70;;;7.00;;
23416;SDS011;11881;42.432;25.632;2022-11-12T12:56:03;9.90;;;7.17;;
23416;SDS011;11881;42.432;25.632;2022-11-12T12:58:30;7.60;;;6.80;;
23416;SDS011;11881;42.432;25.632;2022-11-12T13:01:31;10.30;;;6.97;;
23416;SDS011;11881;42.432;25.632;2022-11-12T13:03:57;8.13;;;6.10;;
23416;SDS011;11881;42.432;25.632;2022-11-12T13:16:55;11.23;;;7.47;;
23416;SDS011;11881;42.432;25.632;2022-11-12T13:19:28;11.20;;;6.70;;
23416;SDS011;11881;42.432;25.632;2022-11-12T13:37:41;7.10;;;5.60;;
23416;SDS011;11881;42.432;25.632;2022-11-12T13:51:26;7.83;;;5.80;;
23416;SDS011;11881;42.432;25.632;2022-11-12T13:53:58;6.53;;;5.43;;
23416;SDS011;11881;42.432;25.632;2022-11-12T13:56:28;6.73;;;5.80;;
23416;SDS011;11881;42.432;25.632;2022-11-12T13:59:15;7.17;;;5.50;;
23416;SDS011;11881;42.432;25.632;2022-11-12T14:01:42;6.37;;;5.17;;
23416;SDS011;11881;42.432;25.632;2022-11-12T14:04:15;6.60;;;5.00;;
23416;SDS011;11881;42.432;25.632;2022-11-12T14:06:43;6.37;;;5.40;;
23416;SDS011;11881;42.432;25.632;2022-11-12T14:20:05;8.03;;;5.80;;
23416;SDS011;11881;42.432;25.632;2022-11-12T14:22:44;7.40;;;5.63;;
23416;SDS011;11881;42.432;25.632;2022-11-12T14:25:20;6.67;;;5.63;;
23416;SDS011;11881;42.432;25.632;2022-11-12T14:27:53;8.80;;;6.10;;
23416;SDS011;11881;42.432;25.632;2022-11-12T14:30:22;8.60;;;5.93;;
23416;SDS011;11881;42.432;25.632;2022-11-12T14:32:51;7.30;;;5.33;;
23416;SDS011;11881;42.432;25.632;2022-11-12T14:35:26;7.87;;;6.13;;
23416;SDS011;11881;42.432;25.632;2022-11-12T14:38:05;7.73;;;6.00;;
23416;SDS011;11881;42.432;25.632;2022-11-12T14:40:44;8.47;;;5.80;;
23416;SDS011;11881;42.432;25.632;2022-11-12T14:45:49;7.67;;;6.07;;
23416;SDS011;11881;42.432;25.632;2022-11-12T14:48:16;8.00;;;5.83;;
23416;SDS011;11881;42.432;25.632;2022-11-12T14:50:42;8.77;;;6.70;;
23416;SDS011;11881;42.432;25.632;2022-11-12T14:56:06;8.57;;;6.40;;
23416;SDS011;11881;42.432;25.632;2022-11-12T14:58:38;7.23;;;6.47;;
23416;SDS011;11881;42.432;25.632;2022-11-12T15:01:21;8.53;;;6.40;;
23416;SDS011;11881;42.432;25.632;2022-11-12T15:03:47;8.90;;;6.67;;
23416;SDS011;11881;42.432;25.632;2022-11-12T15:06:12;11.80;;;7.63;;
23416;SDS011;11881;42.432;25.632;2022-11-12T15:08:43;11.50;;;8.90;;
23416;SDS011;11881;42.432;25.632;2022-11-12T15:11:15;10.93;;;8.07;;
23416;SDS011;11881;42.432;25.632;2022-11-12T15:13:41;12.60;;;8.50;;
23416;SDS011;11881;42.432;25.632;2022-11-12T15:16:08;9.30;;;7.70;;
23416;SDS011;11881;42.432;25.632;2022-11-12T15:18:36;9.83;;;7.07;;
23416;SDS011;11881;42.432;25.632;2022-11-12T15:23:47;10.23;;;6.40;;
23416;SDS011;11881;42.432;25.632;2022-11-12T15:26:22;10.00;;;7.03;;
23416;SDS011;11881;42.432;25.632;2022-11-12T15:28:56;8.80;;;6.77;;
23416;SDS011;11881;42.432;25.632;2022-11-12T15:34:29;7.87;;;5.90;;
23416;SDS011;11881;42.432;25.632;2022-11-12T15:36:58;6.53;;;5.57;;
23416;SDS011;11881;42.432;25.632;2022-11-12T15:39:27;8.63;;;6.33;;
23416;SDS011;11881;42.432;25.632;2022-11-12T15:41:57;6.80;;;5.70;;
23416;SDS011;11881;42.432;25.632;2022-11-12T15:44:27;5.67;;;4.93;;
23416;SDS011;11881;42.432;25.632;2022-11-12T15:46:56;10.67;;;5.60;;
23416;SDS011;11881;42.432;25.632;2022-11-12T15:49:22;7.17;;;5.00;;
23416;SDS011;11881;42.432;25.632;2022-11-12T15:51:48;5.97;;;4.93;;
23416;SDS011;11881;42.432;25.632;2022-11-12T15:54:13;7.50;;;5.17;;
23416;SDS011;11881;42.432;25.632;2022-11-12T15:56:39;8.87;;;5.30;;
23416;SDS011;11881;42.432;25.632;2022-11-12T15:59:04;6.57;;;5.00;;
23416;SDS011;11881;42.432;25.632;2022-11-12T16:01:30;6.77;;;4.40;;
23416;SDS011;11881;42.432;25.632;2022-11-12T16:03:55;8.53;;;5.87;;
23416;SDS011;11881;42.432;25.632;2022-11-12T16:06:20;8.40;;;5.50;;
23416;SDS011;11881;42.432;25.632;2022-11-12T16:08:46;8.67;;;5.57;;
23416;SDS011;11881;42.432;25.632;2022-11-12T16:11:11;5.23;;;4.00;;
23416;SDS011;11881;42.432;25.632;2022-11-12T16:13:57;7.07;;;4.07;;
23416;SDS011;11881;42.432;25.632;2022-11-12T16:16:23;9.80;;;4.47;;
23416;SDS011;11881;42.432;25.632;2022-11-12T16:18:48;6.53;;;4.00;;
23416;SDS011;11881;42.432;25.632;2022-11-12T16:21:14;5.70;;;4.10;;
23416;SDS011;11881;42.432;25.632;2022-11-12T16:23:39;7.47;;;4.40;;
23416;SDS011;11881;42.432;25.632;2022-11-12T16:26:05;9.80;;;5.93;;
23416;SDS011;11881;42.432;25.632;2022-11-12T16:28:33;8.87;;;4.97;;
23416;SDS011;11881;42.432;25.632;2022-11-12T16:30:59;7.07;;;4.43;;
23416;SDS011;11881;42.432;25.632;2022-11-12T16:33:24;7.60;;;5.07;;
23416;SDS011;11881;42.432;25.632;2022-11-12T16:35:49;7.17;;;4.10;;
23416;SDS011;11881;42.432;25.632;2022-11-12T16:38:15;6.40;;;3.73;;
23416;SDS011;11881;42.432;25.632;2022-11-12T16:40:42;6.33;;;3.87;;
23416;SDS011;11881;42.432;25.632;2022-11-12T16:43:08;7.23;;;4.50;;
23416;SDS011;11881;42.432;25.632;2022-11-12T16:45:35;7.80;;;5.03;;
23416;SDS011;11881;42.432;25.632;2022-11-12T16:48:05;9.93;;;6.10;;
23416;SDS011;11881;42.432;25.632;2022-11-12T16:50:37;14.40;;;8.80;;
23416;SDS011;11881;42.432;25.632;2022-11-12T16:53:03;8.63;;;5.13;;
23416;SDS011;11881;42.432;25.632;2022-11-12T16:55:30;12.57;;;4.80;;